Time;durP1;ratioP1;P1;durP2;ratioP2;P2;SDS_P1;SDS_P2;PMS_P1;PMS_P2;Temp;Humidity;BMP_temperature;BMP_pressure;BME280_temperature;BME280_humidity;BME280_pressure;Samples;Min_cycle;Max_cycle;Signal;HPM_P1;HPM_P2
2022/11/30 00:01:11;;;;;;;49.13;31.93;;;;;;;5.73;100.00;101745.25;5077193;28;20238;-65
2022/11/30 00:03:41;;;;;;;52.33;32.03;;;;;;;5.65;100.00;101752.81;5079219;28;20293;-64
2022/11/30 00:06:10;;;;;;;42.40;32.20;;;;;;;5.60;100.00;101756.06;5084610;28;20251;-65
2022/11/30 00:08:37;;;;;;;43.57;31.77;;;;;;;5.41;100.00;101757.13;5083474;28;20719;-64
2022/11/30 00:11:08;;;;;;;46.30;30.87;;;;;;;5.89;100.00;101759.69;5078904;28;20234;-65
2022/11/30 00:13:35;;;;;;;47.97;32.87;;;;;;;5.87;100.00;101758.75;5064081;28;20317;-65
2022/11/30 00:16:02;;;;;;;47.33;33.43;;;;;;;5.16;100.00;101758.84;5075901;28;20318;-65
2022/11/30 00:18:30;;;;;;;50.40;32.13;;;;;;;5.34;100.00;101756.03;5067936;28;20247;-65
2022/11/30 00:20:59;;;;;;;44.57;32.03;;;;;;;5.55;100.00;101747.22;5068999;28;20231;-64
2022/11/30 00:23:26;;;;;;;44.17;30.73;;;;;;;5.65;100.00;101749.28;5062082;28;20239;-64
2022/11/30 00:25:53;;;;;;;46.63;31.70;;;;;;;5.96;100.00;101759.09;5072089;28;20233;-64
2022/11/30 00:28:19;;;;;;;42.70;30.70;;;;;;;5.84;100.00;101758.66;5056031;28;20280;-64
2022/11/30 00:30:46;;;;;;;43.70;32.30;;;;;;;5.52;100.00;101755.78;5063788;28;20732;-63
2022/11/30 00:33:13;;;;;;;53.17;31.53;;;;;;;5.34;100.00;101756.03;5061173;28;20317;-63
2022/11/30 00:35:41;;;;;;;43.80;31.20;;;;;;;5.45;100.00;101753.81;5061338;28;20340;-64
2022/11/30 00:38:07;;;;;;;44.17;31.27;;;;;;;5.57;100.00;101754.22;5061427;28;20239;-65
2022/11/30 00:40:34;;;;;;;46.37;31.17;;;;;;;5.39;100.00;101750.97;5048229;28;20762;-63
2022/11/30 00:43:00;;;;;;;50.27;32.27;;;;;;;5.50;100.00;101754.84;5062907;28;20311;-63
2022/11/30 00:45:27;;;;;;;49.17;33.03;;;;;;;5.38;100.00;101757.03;5076259;28;20389;-63
2022/11/30 00:47:54;;;;;;;52.70;33.20;;;;;;;5.23;100.00;101746.94;5075368;28;20238;-64
2022/11/30 00:50:20;;;;;;;47.80;32.87;;;;;;;5.30;100.00;101746.31;5075895;28;20317;-62
2022/11/30 00:52:48;;;;;;;50.63;33.27;;;;;;;5.45;100.00;101746.88;5079206;28;20307;-63
2022/11/30 00:55:15;;;;;;;46.17;30.43;;;;;;;5.56;100.00;101752.47;5078160;28;20359;-63
2022/11/30 00:57:42;;;;;;;52.30;32.90;;;;;;;5.55;100.00;101753.31;5071317;28;20242;-64
2022/11/30 01:00:10;;;;;;;50.20;34.67;;;;;;;5.34;100.00;101755.13;5066137;28;20301;-64
2022/11/30 01:02:37;;;;;;;45.37;33.70;;;;;;;5.42;100.00;101757.19;5070653;28;20338;-64
2022/11/30 01:05:04;;;;;;;49.70;32.77;;;;;;;5.35;100.00;101763.00;5075117;28;20225;-65
2022/11/30 01:07:31;;;;;;;52.67;33.30;;;;;;;5.11;100.00;101762.97;5074289;28;20266;-68
2022/11/30 01:09:59;;;;;;;48.30;31.00;;;;;;;5.23;100.00;101766.03;5080782;28;20226;-63
2022/11/30 01:12:26;;;;;;;51.90;34.80;;;;;;;5.15;100.00;101764.84;5075271;28;20242;-63
2022/11/30 01:14:56;;;;;;;54.10;34.30;;;;;;;5.15;100.00;101764.84;5065148;28;20334;-64
2022/11/30 01:17:23;;;;;;;49.20;32.27;;;;;;;5.07;100.00;101761.06;5055694;28;20609;-65
2022/11/30 01:19:49;;;;;;;48.47;32.57;;;;;;;5.12;100.00;101771.66;5062793;28;20239;-64
2022/11/30 01:22:16;;;;;;;50.03;31.10;;;;;;;5.24;100.00;101767.81;5063615;28;20757;-64
2022/11/30 01:24:43;;;;;;;49.00;32.90;;;;;;;5.08;100.00;101768.03;5065512;28;20590;-63
2022/11/30 01:27:11;;;;;;;51.27;34.57;;;;;;;4.99;100.00;101772.91;5063526;28;20239;-64
2022/11/30 01:29:38;;;;;;;49.83;34.87;;;;;;;5.37;100.00;101769.16;5072795;28;20693;-65
2022/11/30 01:32:05;;;;;;;45.40;33.47;;;;;;;5.21;100.00;101780.69;5060020;28;20306;-64
2022/11/30 01:34:33;;;;;;;47.77;32.43;;;;;;;5.21;100.00;101770.28;5068184;28;20262;-63
2022/11/30 01:37:00;;;;;;;48.87;32.07;;;;;;;5.44;100.00;101778.06;5064859;28;20226;-65
2022/11/30 01:39:26;;;;;;;52.20;33.67;;;;;;;5.39;100.00;101779.63;5079640;28;20321;-64
2022/11/30 01:41:53;;;;;;;52.10;33.70;;;;;;;5.36;100.00;101779.50;5061093;28;20242;-64
2022/11/30 01:44:53;;;;;;;50.47;34.67;;;;;;;5.20;100.00;101773.72;5062380;28;20230;-64
2022/11/30 01:47:24;;;;;;;51.53;33.67;;;;;;;5.43;100.00;101774.56;5045082;28;20236;-65
2022/11/30 01:49:54;;;;;;;50.60;33.13;;;;;;;5.72;100.00;101764.31;5061706;28;20905;-64
2022/11/30 01:52:24;;;;;;;53.80;34.50;;;;;;;5.55;100.00;101771.53;5060885;28;20716;-64
2022/11/30 01:54:54;;;;;;;49.73;34.20;;;;;;;5.42;100.00;101777.13;5056168;28;20678;-64
2022/11/30 01:57:22;;;;;;;49.33;33.50;;;;;;;5.22;100.00;101774.66;5057753;28;20243;-64
2022/11/30 01:59:50;;;;;;;53.97;35.87;;;;;;;5.10;100.00;101778.53;5074725;28;20311;-65
2022/11/30 02:02:21;;;;;;;50.83;35.07;;;;;;;5.39;100.00;101779.63;5070656;28;20453;-65
2022/11/30 02:04:47;;;;;;;52.03;34.43;;;;;;;5.42;100.00;101782.34;5078068;28;20228;-64
2022/11/30 02:07:15;;;;;;;51.27;34.00;;;;;;;5.40;100.00;101783.97;5071660;27;20234;-64
2022/11/30 02:09:44;;;;;;;53.37;34.53;;;;;;;5.40;100.00;101778.78;5065651;28;20335;-64
2022/11/30 02:12:18;;;;;;;51.23;34.70;;;;;;;5.40;100.00;101781.38;5069457;28;20331;-65
2022/11/30 02:14:47;;;;;;;48.50;33.07;;;;;;;5.59;100.00;101780.34;5076686;28;20249;-65
2022/11/30 02:17:20;;;;;;;53.83;34.73;;;;;;;5.46;100.00;101786.81;5069670;28;20254;-65
2022/11/30 02:20:22;;;;;;;50.83;34.57;;;;;;;5.34;100.00;101775.97;5074869;28;20235;-65
2022/11/30 02:23:02;;;;;;;52.20;35.83;;;;;;;5.29;100.00;101777.50;5057206;28;20229;-65
2022/11/30 02:25:36;;;;;;;49.67;33.47;;;;;;;5.52;100.00;101774.03;5076007;28;20237;-64
2022/11/30 02:28:36;;;;;;;45.67;33.53;;;;;;;5.38;100.00;101773.53;5076370;28;20321;-65
2022/11/30 02:31:04;;;;;;;51.07;32.10;;;;;;;5.71;100.00;101778.16;5072149;28;20642;-64
2022/11/30 02:33:32;;;;;;;52.03;33.43;;;;;;;5.63;100.00;101784.84;5081296;28;20313;-64
2022/11/30 02:35:59;;;;;;;52.67;34.03;;;;;;;5.63;100.00;101784.84;5069721;28;20230;-65
2022/11/30 02:38:27;;;;;;;49.30;33.17;;;;;;;5.52;100.00;101781.84;5050472;28;20719;-66
2022/11/30 02:40:54;;;;;;;45.00;33.60;;;;;;;5.44;100.00;101783.25;5051989;28;20304;-66
2022/11/30 02:43:23;;;;;;;49.10;33.07;;;;;;;5.35;100.00;101780.34;5061202;28;20231;-67
2022/11/30 02:45:56;;;;;;;47.70;34.30;;;;;;;5.37;100.00;101789.06;5068449;28;20684;-64
2022/11/30 02:48:28;;;;;;;48.60;33.00;;;;;;;5.10;100.00;101786.34;5066785;28;20243;-67
2022/11/30 02:50:58;;;;;;;49.67;33.13;;;;;;;4.90;100.00;101788.16;5075663;28;20246;-65
2022/11/30 02:53:25;;;;;;;48.97;31.07;;;;;;;5.15;100.00;101780.47;5059461;28;20364;-64
2022/11/30 02:55:53;;;;;;;56.03;35.37;;;;;;;5.32;100.00;101785.44;5065715;28;20261;-64
2022/11/30 02:58:20;;;;;;;51.93;33.53;;;;;;;4.90;100.00;101788.16;5052816;28;20705;-63
2022/11/30 03:00:47;;;;;;;53.80;35.17;;;;;;;4.69;100.00;101783.00;5070081;28;20234;-63
2022/11/30 03:03:16;;;;;;;49.40;33.23;;;;;;;4.66;100.00;101773.34;5080506;28;20223;-63
2022/11/30 03:05:43;;;;;;;45.47;32.30;;;;;;;5.38;100.00;101788.25;5068242;28;20227;-63
2022/11/30 03:08:10;;;;;;;49.27;34.00;;;;;;;5.06;100.00;101790.53;5070171;28;20723;-64
2022/11/30 03:10:37;;;;;;;48.57;32.70;;;;;;;5.03;100.00;101795.63;5070347;28;20222;-64
2022/11/30 03:13:04;;;;;;;48.57;32.70;;;;;;;5.22;100.00;101794.59;5079586;28;20249;-63
2022/11/30 03:15:30;;;;;;;49.57;33.00;;;;;;;5.11;100.00;101793.31;5071545;28;20231;-63
2022/11/30 03:18:01;;;;;;;47.67;33.50;;;;;;;5.18;100.00;101793.59;5076237;28;20678;-63
2022/11/30 03:20:30;;;;;;;50.30;33.03;;;;;;;5.10;100.00;101788.94;5074714;28;20223;-63
2022/11/30 03:23:00;;;;;;;49.37;32.77;;;;;;;4.94;100.00;101790.06;5067596;28;20235;-63
2022/11/30 03:25:27;;;;;;;53.27;36.80;;;;;;;4.91;100.00;101795.13;5078114;28;20648;-63
2022/11/30 03:27:54;;;;;;;52.67;36.20;;;;;;;4.78;100.00;101799.88;5079618;28;20230;-65
2022/11/30 03:30:21;;;;;;;49.63;33.70;;;;;;;5.05;100.00;101796.56;5077483;28;20229;-63
2022/11/30 03:32:47;;;;;;;47.13;32.27;;;;;;;5.19;100.00;101795.38;5071389;28;20680;-63
2022/11/30 03:35:15;;;;;;;46.07;33.60;;;;;;;5.30;100.00;101800.09;5062810;28;20234;-63
2022/11/30 03:37:43;;;;;;;50.50;32.83;;;;;;;5.30;100.00;101794.88;5057994;28;20231;-64
2022/11/30 03:40:11;;;;;;;51.07;33.63;;;;;;;5.35;100.00;101803.78;5052071;28;20235;-63
2022/11/30 03:42:38;;;;;;;48.13;33.40;;;;;;;5.37;100.00;101805.63;5057960;28;20227;-65
2022/11/30 03:45:06;;;;;;;46.93;33.80;;;;;;;5.21;100.00;101804.13;5054237;28;20234;-63
2022/11/30 03:47:33;;;;;;;51.33;33.73;;;;;;;5.04;100.00;101797.41;5050245;28;20227;-64
2022/11/30 03:50:00;;;;;;;53.87;35.13;;;;;;;4.96;100.00;101802.31;5056973;28;20238;-62
2022/11/30 03:52:27;;;;;;;48.67;33.57;;;;;;;5.10;100.00;101808.06;5061618;28;20285;-64
2022/11/30 03:54:55;;;;;;;51.20;32.70;;;;;;;5.20;100.00;101804.09;5068002;28;20258;-64
2022/11/30 03:57:22;;;;;;;54.23;35.40;;;;;;;4.92;100.00;101802.13;5066037;28;20628;-63
2022/11/30 03:59:49;;;;;;;50.07;33.23;;;;;;;5.09;100.00;101808.88;5071185;28;20733;-63
2022/11/30 04:02:16;;;;;;;47.63;32.27;;;;;;;5.14;100.00;101811.66;5075288;28;20238;-64
2022/11/30 04:04:43;;;;;;;50.00;32.37;;;;;;;5.02;100.00;101812.09;5062242;28;20318;-63
2022/11/30 04:07:10;;;;;;;55.47;34.10;;;;;;;5.08;100.00;101820.09;5063594;28;20234;-63
2022/11/30 04:09:37;;;;;;;53.13;34.30;;;;;;;5.20;100.00;101815.38;5077131;28;20227;-63
2022/11/30 04:12:05;;;;;;;48.97;33.07;;;;;;;5.42;100.00;101811.88;5077295;28;20238;-62
2022/11/30 04:14:32;;;;;;;50.53;33.53;;;;;;;5.01;100.00;101824.19;5076886;28;20230;-64
2022/11/30 04:16:59;;;;;;;49.13;33.97;;;;;;;5.12;100.00;101822.00;5076338;28;20226;-63
2022/11/30 04:19:26;;;;;;;49.97;34.63;;;;;;;5.17;100.00;101817.88;5078118;28;20692;-63
2022/11/30 04:21:53;;;;;;;49.53;33.43;;;;;;;5.02;100.00;101819.88;5076527;28;20235;-63
2022/11/30 04:24:20;;;;;;;48.27;33.63;;;;;;;4.94;100.00;101818.69;5079239;28;20231;-63
2022/11/30 04:26:46;;;;;;;51.87;34.40;;;;;;;4.89;100.00;101820.22;5075970;28;20229;-63
2022/11/30 04:29:15;;;;;;;52.20;34.57;;;;;;;5.06;100.00;101816.56;5075565;28;20774;-62
2022/11/30 04:31:41;;;;;;;51.97;34.20;;;;;;;4.98;100.00;101818.88;5055207;28;20318;-63
2022/11/30 04:34:09;;;;;;;55.00;33.87;;;;;;;4.99;100.00;101819.75;5067075;28;20227;-63
2022/11/30 04:36:36;;;;;;;45.97;32.27;;;;;;;5.17;100.00;101830.88;5076544;28;20257;-63
2022/11/30 04:39:03;;;;;;;54.90;36.10;;;;;;;4.65;100.00;101833.13;5075159;28;20796;-62
2022/11/30 04:41:30;;;;;;;52.50;33.93;;;;;;;4.72;100.00;101824.75;5078216;28;20236;-63
2022/11/30 04:43:56;;;;;;;53.00;35.40;;;;;;;4.71;100.00;101842.06;5073649;28;20723;-63
2022/11/30 04:46:25;;;;;;;53.13;34.00;;;;;;;4.48;100.00;101846.31;5070762;28;20226;-62
2022/11/30 04:48:52;;;;;;;51.33;34.23;;;;;;;4.68;100.00;101841.94;5065516;28;20226;-63
2022/11/30 04:51:18;;;;;;;47.27;33.90;;;;;;;4.74;100.00;101839.59;5052981;28;20237;-63
2022/11/30 04:53:45;;;;;;;50.30;35.03;;;;;;;4.81;100.00;101847.63;5053089;28;20670;-63
2022/11/30 04:56:12;;;;;;;51.60;33.70;;;;;;;4.77;100.00;101844.94;5050448;28;20231;-64
2022/11/30 04:58:39;;;;;;;47.57;33.50;;;;;;;4.99;100.00;101840.59;5051217;28;20372;-63
2022/11/30 05:01:07;;;;;;;49.90;34.50;;;;;;;4.90;100.00;101835.00;5066027;28;20285;-64
2022/11/30 05:03:35;;;;;;;46.10;32.60;;;;;;;4.79;100.00;101843.25;5063645;28;20250;-64
2022/11/30 05:06:02;;;;;;;52.23;34.53;;;;;;;4.82;100.00;101845.09;5061620;28;20285;-65
2022/11/30 05:08:29;;;;;;;50.67;37.23;;;;;;;4.82;100.00;101837.31;5071004;28;20227;-63
2022/11/30 05:10:56;;;;;;;48.47;33.80;;;;;;;4.86;100.00;101838.31;5063633;28;20360;-64
2022/11/30 05:13:24;;;;;;;48.83;32.63;;;;;;;5.17;100.00;101850.81;5060590;28;20669;-63
2022/11/30 05:15:52;;;;;;;49.50;34.17;;;;;;;5.16;100.00;101844.72;5072176;28;20685;-64
2022/11/30 05:18:19;;;;;;;51.47;33.70;;;;;;;5.05;100.00;101851.22;5064657;28;20689;-64
2022/11/30 05:20:48;;;;;;;47.60;32.43;;;;;;;5.17;100.00;101854.31;5066661;28;20238;-63
2022/11/30 05:23:16;;;;;;;47.50;32.17;;;;;;;5.06;100.00;101853.00;5075416;28;20653;-64
2022/11/30 05:25:43;;;;;;;51.13;33.97;;;;;;;5.18;100.00;101861.28;5076087;28;20339;-63
2022/11/30 05:28:10;;;;;;;48.77;34.17;;;;;;;5.05;100.00;101863.34;5071528;28;20326;-63
2022/11/30 05:30:38;;;;;;;50.53;34.70;;;;;;;5.19;100.00;101870.84;5070582;28;20233;-66
2022/11/30 05:33:05;;;;;;;46.13;31.50;;;;;;;5.19;100.00;101870.84;5067930;28;20237;-64
2022/11/30 05:35:32;;;;;;;48.53;35.20;;;;;;;5.16;100.00;101869.84;5076693;28;20232;-64
2022/11/30 05:38:00;;;;;;;50.37;32.67;;;;;;;5.11;100.00;101872.28;5069746;28;20322;-63
2022/11/30 05:40:28;;;;;;;49.80;30.93;;;;;;;5.16;100.00;101869.84;5067337;28;20310;-67
2022/11/30 05:42:56;;;;;;;55.63;34.63;;;;;;;5.02;100.00;101880.63;5077594;28;20563;-64
2022/11/30 05:45:23;;;;;;;51.27;35.13;;;;;;;5.01;100.00;101877.94;5080461;28;20237;-64
2022/11/30 05:47:50;;;;;;;47.50;32.63;;;;;;;4.95;100.00;101875.09;5079009;28;20795;-64
2022/11/30 05:50:17;;;;;;;55.27;34.50;;;;;;;4.84;100.00;101876.38;5069596;28;20226;-64
2022/11/30 05:52:44;;;;;;;50.43;34.50;;;;;;;4.64;100.00;101873.88;5069310;28;20222;-65
2022/11/30 05:55:12;;;;;;;51.67;34.07;;;;;;;4.83;100.00;101874.63;5077707;28;20317;-64
2022/11/30 05:57:40;;;;;;;46.23;33.10;;;;;;;5.02;100.00;101884.94;5073004;28;20241;-63
2022/11/30 06:00:09;;;;;;;48.17;32.20;;;;;;;4.91;100.00;101875.81;5077354;28;20236;-63
2022/11/30 06:02:36;;;;;;;44.60;31.37;;;;;;;4.88;100.00;101887.00;5076022;28;20290;-64
2022/11/30 06:05:03;;;;;;;45.80;33.47;;;;;;;5.01;100.00;101888.34;5068145;28;20230;-64
2022/11/30 06:07:30;;;;;;;53.53;34.17;;;;;;;5.03;100.00;101895.41;5060446;28;20256;-63
2022/11/30 06:09:57;;;;;;;52.57;33.17;;;;;;;4.90;100.00;101893.13;5062769;28;20234;-63
2022/11/30 06:12:25;;;;;;;48.07;32.97;;;;;;;4.81;100.00;101897.97;5071789;28;20231;-63
2022/11/30 06:14:52;;;;;;;50.93;33.37;;;;;;;4.86;100.00;101900.75;5065535;28;20335;-63
2022/11/30 06:17:19;;;;;;;50.37;32.07;;;;;;;5.32;100.00;101898.28;5059865;28;20234;-64
2022/11/30 06:19:46;;;;;;;48.23;34.60;;;;;;;5.21;100.00;101907.38;5055274;28;20238;-63
2022/11/30 06:22:13;;;;;;;52.70;31.57;;;;;;;5.26;100.00;101904.16;5063043;28;20265;-64
2022/11/30 06:24:40;;;;;;;49.63;32.20;;;;;;;5.58;100.00;101901.00;5068931;28;20758;-64
2022/11/30 06:27:07;;;;;;;45.43;32.43;;;;;;;5.39;100.00;101900.28;5051447;28;20584;-64
2022/11/30 06:29:35;;;;;;;54.27;33.40;;;;;;;5.10;100.00;101909.56;5050380;28;20223;-64
2022/11/30 06:32:02;;;;;;;46.50;32.60;;;;;;;4.86;100.00;101900.75;5052084;28;20310;-63
2022/11/30 06:34:31;;;;;;;48.07;33.10;;;;;;;4.95;100.00;101908.91;5048060;28;20442;-63
2022/11/30 06:36:58;;;;;;;47.27;31.27;;;;;;;4.78;100.00;101906.53;5049510;28;20235;-64
2022/11/30 06:39:25;;;;;;;51.77;34.87;;;;;;;4.86;100.00;101916.38;5057754;28;20235;-64
2022/11/30 06:41:52;;;;;;;53.23;34.13;;;;;;;5.07;100.00;101917.25;5056453;28;20358;-66
2022/11/30 06:44:19;;;;;;;48.30;32.50;;;;;;;5.39;100.00;101917.63;5051892;28;20238;-64
2022/11/30 06:46:47;;;;;;;45.97;33.23;;;;;;;5.14;100.00;101919.25;5050011;28;20704;-64
2022/11/30 06:49:14;;;;;;;44.30;30.13;;;;;;;5.13;100.00;101921.81;5054256;28;20326;-64
2022/11/30 06:51:42;;;;;;;48.00;32.07;;;;;;;5.33;100.00;101925.19;5058019;28;20254;-66
2022/11/30 06:54:09;;;;;;;45.50;30.50;;;;;;;5.74;100.00;101925.06;5055136;28;20224;-64
2022/11/30 06:56:36;;;;;;;50.03;33.13;;;;;;;5.55;100.00;101922.63;5051797;28;20251;-64
2022/11/30 06:59:03;;;;;;;50.33;32.77;;;;;;;5.26;100.00;101930.19;5059187;28;20234;-63
2022/11/30 07:01:29;;;;;;;44.60;31.77;;;;;;;5.31;100.00;101932.09;5067453;28;20291;-63
2022/11/30 07:03:58;;;;;;;48.90;31.73;;;;;;;5.15;100.00;101933.16;5078175;28;20262;-63
2022/11/30 07:06:25;;;;;;;42.83;29.90;;;;;;;5.25;100.00;101937.91;5079428;28;20548;-63
2022/11/30 07:08:52;;;;;;;47.33;34.87;;;;;;;4.99;100.00;101936.88;5064106;28;20245;-64
2022/11/30 07:11:19;;;;;;;51.97;32.03;;;;;;;4.86;100.00;101938.06;5078716;28;20275;-63
2022/11/30 07:13:46;;;;;;;46.73;31.07;;;;;;;4.88;100.00;101940.72;5066674;28;20284;-63
2022/11/30 07:16:13;;;;;;;47.63;32.03;;;;;;;4.87;100.00;101928.56;5059772;28;20373;-64
2022/11/30 07:18:40;;;;;;;46.73;31.00;;;;;;;5.05;100.00;101942.31;5068303;28;20314;-63
2022/11/30 07:21:09;;;;;;;44.93;31.60;;;;;;;5.26;100.00;101945.81;5077663;28;20747;-64
2022/11/30 07:26:21;;;;;;;45.40;31.10;;;;;;;5.13;100.00;101948.75;5074090;28;20569;-63
2022/11/30 07:28:50;;;;;;;44.97;31.13;;;;;;;5.26;100.00;101952.69;5075554;28;20844;-63
2022/11/30 07:31:19;;;;;;;42.97;29.47;;;;;;;5.65;100.00;101953.41;5070598;28;20271;-64
2022/11/30 07:33:46;;;;;;;46.57;30.10;;;;;;;5.59;100.00;101958.38;5078893;28;20229;-63
2022/11/30 07:36:16;;;;;;;47.13;31.80;;;;;;;5.24;100.00;101959.59;5075948;28;20612;-62
2022/11/30 07:38:43;;;;;;;44.10;31.27;;;;;;;5.25;100.00;101964.84;5071794;28;20309;-64
2022/11/30 07:41:10;;;;;;;49.53;32.20;;;;;;;5.23;100.00;101960.41;5073657;28;20229;-64
2022/11/30 07:43:37;;;;;;;43.10;30.33;;;;;;;5.17;100.00;101966.25;5070604;28;20241;-63
2022/11/30 07:46:04;;;;;;;40.10;29.30;;;;;;;5.18;100.00;101970.63;5066992;28;20223;-64
2022/11/30 07:48:32;;;;;;;48.67;31.87;;;;;;;5.05;100.00;101965.72;5067027;28;20770;-63
2022/11/30 07:51:02;;;;;;;45.40;30.57;;;;;;;4.90;100.00;101959.91;5050056;28;20368;-64
2022/11/30 07:53:31;;;;;;;44.57;29.87;;;;;;;4.84;100.00;101959.63;5060302;28;20219;-63
2022/11/30 07:56:02;;;;;;;41.67;30.57;;;;;;;4.99;100.00;101965.50;5071188;28;20594;-64
2022/11/30 07:58:29;;;;;;;48.73;32.40;;;;;;;5.38;100.00;101970.56;5059023;28;20720;-64
2022/11/30 08:01:01;;;;;;;44.93;30.27;;;;;;;5.23;100.00;101965.63;5071973;28;20318;-64
2022/11/30 08:03:28;;;;;;;43.27;30.37;;;;;;;5.25;100.00;101964.84;5069543;28;20332;-64
2022/11/30 08:06:00;;;;;;;42.80;28.53;;;;;;;5.31;100.00;101963.31;5055150;28;20238;-63
2022/11/30 08:08:31;;;;;;;48.77;31.37;;;;;;;5.30;100.00;101966.72;5071055;28;20259;-64
2022/11/30 08:10:59;;;;;;;43.27;29.40;;;;;;;5.21;100.00;101967.25;5070426;28;20362;-64
2022/11/30 08:13:26;;;;;;;42.97;30.40;;;;;;;5.50;100.00;101963.22;5069951;28;20241;-63
2022/11/30 08:15:53;;;;;;;45.03;28.77;;;;;;;5.46;100.00;101971.75;5072490;28;20232;-67
2022/11/30 08:18:20;;;;;;;42.10;30.40;;;;;;;5.15;100.00;101973.09;5068124;28;20352;-64
2022/11/30 08:20:47;;;;;;;43.07;29.03;;;;;;;5.22;100.00;101988.16;5055219;28;20314;-64
2022/11/30 08:23:14;;;;;;;48.67;32.13;;;;;;;5.10;100.00;101974.63;5057774;28;20252;-64
2022/11/30 08:25:42;;;;;;;42.60;29.30;;;;;;;5.31;100.00;101984.16;5067994;28;20238;-64
2022/11/30 08:28:10;;;;;;;46.10;33.03;;;;;;;5.17;100.00;101975.78;5076242;28;20944;-62
2022/11/30 08:30:37;;;;;;;45.47;32.03;;;;;;;5.23;100.00;101987.34;5068738;28;20279;-63
2022/11/30 08:33:04;;;;;;;47.20;29.87;;;;;;;5.30;100.00;101982.34;5062507;28;20235;-63
2022/11/30 08:35:31;;;;;;;46.13;30.70;;;;;;;5.14;100.00;101983.47;5068441;28;20498;-62
2022/11/30 08:37:58;;;;;;;48.97;31.70;;;;;;;5.06;100.00;101987.47;5062565;28;20227;-63
2022/11/30 08:40:25;;;;;;;46.40;29.37;;;;;;;4.98;100.00;101990.66;5070687;28;20234;-63
2022/11/30 08:42:53;;;;;;;46.60;31.07;;;;;;;5.15;100.00;101999.13;5072969;28;20244;-63
2022/11/30 08:45:20;;;;;;;39.77;29.83;;;;;;;5.28;100.00;101994.44;5062338;28;20321;-63
2022/11/30 08:47:46;;;;;;;51.00;32.20;;;;;;;5.23;100.00;101997.75;5061749;28;20234;-62
2022/11/30 08:50:13;;;;;;;42.33;29.47;;;;;;;5.10;100.00;102002.38;5067842;28;20223;-63
2022/11/30 08:52:40;;;;;;;50.63;32.03;;;;;;;5.03;100.00;102007.34;5071807;28;20538;-63
2022/11/30 08:55:08;;;;;;;44.70;31.73;;;;;;;5.42;100.00;102007.19;5064634;28;20326;-63
2022/11/30 08:57:35;;;;;;;44.63;31.43;;;;;;;5.50;100.00;102002.28;5057592;28;20243;-71
2022/11/30 09:00:04;;;;;;;45.50;28.53;;;;;;;5.46;100.00;102006.47;5060119;28;20661;-63
2022/11/30 09:02:31;;;;;;;44.03;30.33;;;;;;;5.42;100.00;102008.91;5062160;28;20241;-63
2022/11/30 09:04:58;;;;;;;42.63;28.80;;;;;;;5.20;100.00;102008.03;5063121;28;20715;-64
2022/11/30 09:07:25;;;;;;;52.80;30.03;;;;;;;5.38;100.00;102004.41;5077228;28;20238;-63
2022/11/30 09:09:52;;;;;;;45.00;30.63;;;;;;;5.30;100.00;102003.19;5072099;28;20237;-62
2022/11/30 09:12:19;;;;;;;42.27;30.07;;;;;;;5.33;100.00;102011.13;5080852;28;20316;-62
2022/11/30 09:14:46;;;;;;;43.23;29.83;;;;;;;5.56;100.00;102006.88;5084493;28;20263;-63
2022/11/30 09:17:14;;;;;;;43.90;30.80;;;;;;;5.68;100.00;102010.81;5083302;28;20261;-62
2022/11/30 09:19:40;;;;;;;51.57;30.67;;;;;;;4.98;100.00;102013.16;5063973;28;20234;-63
2022/11/30 09:22:08;;;;;;;45.13;30.27;;;;;;;5.48;100.00;102011.78;5055021;28;20227;-64
2022/11/30 09:24:36;;;;;;;42.80;28.30;;;;;;;5.80;100.00;102006.94;5062237;28;20594;-64
2022/11/30 09:27:04;;;;;;;42.07;29.83;;;;;;;5.49;100.00;102008.31;5057882;28;20245;-63
2022/11/30 09:29:30;;;;;;;42.67;28.60;;;;;;;5.72;100.00;102014.44;5057754;28;20664;-63
2022/11/30 09:31:57;;;;;;;46.20;31.23;;;;;;;5.62;100.00;102015.81;5056845;28;20728;-67
2022/11/30 09:34:25;;;;;;;46.03;30.20;;;;;;;5.58;100.00;102015.59;5066776;28;20231;-64
2022/11/30 09:36:52;;;;;;;41.77;29.50;;;;;;;5.53;100.00;102012.81;5065013;28;20455;-64
2022/11/30 09:39:19;;;;;;;45.77;29.43;;;;;;;5.54;100.00;102017.19;5063965;28;21300;-64
2022/11/30 09:42:13;;;;;;;36.20;27.63;;;;;;;5.70;100.00;102011.78;5062211;28;20684;-64
2022/11/30 09:44:55;;;;;;;41.57;30.50;;;;;;;5.58;100.00;102008.72;5077792;28;20242;-62
2022/11/30 09:47:39;;;;;;;43.90;28.50;;;;;;;5.62;100.00;102013.22;5068865;28;20325;-63
2022/11/30 09:50:12;;;;;;;39.23;28.77;;;;;;;6.22;100.00;102019.03;5065792;28;20258;-63
2022/11/30 09:52:42;;;;;;;45.70;29.33;;;;;;;6.03;97.29;102013.06;5062309;28;20262;-63
2022/11/30 09:55:10;;;;;;;45.10;29.53;;;;;;;5.92;96.92;102007.41;5058231;28;20231;-64
2022/11/30 09:57:45;;;;;;;40.17;28.43;;;;;;;6.15;100.00;102001.38;5057194;28;20232;-63
2022/11/30 10:00:14;;;;;;;44.37;28.37;;;;;;;5.94;96.79;102005.78;5070494;28;20287;-63
2022/11/30 10:02:41;;;;;;;39.83;29.00;;;;;;;5.77;98.28;102006.81;5064369;28;20231;-61
2022/11/30 10:05:14;;;;;;;46.30;31.17;;;;;;;5.53;99.50;102005.00;5062336;28;20243;-63
2022/11/30 10:08:04;;;;;;;39.13;28.27;;;;;;;5.62;100.00;102002.78;5055667;28;20243;-62
2022/11/30 10:10:36;;;;;;;42.33;29.90;;;;;;;5.75;98.70;102005.03;5062001;28;20314;-63
2022/11/30 10:13:16;;;;;;;40.10;27.97;;;;;;;5.81;100.00;101998.28;5052460;28;20327;-62
2022/11/30 10:15:53;;;;;;;43.03;26.53;;;;;;;5.92;100.00;102004.78;5061970;28;20303;-62
2022/11/30 10:18:25;;;;;;;40.90;28.13;;;;;;;5.94;98.13;102001.47;5051601;28;21002;-62
2022/11/30 10:20:59;;;;;;;37.80;25.70;;;;;;;5.95;100.00;102002.34;5053675;28;20234;-62
2022/11/30 10:23:37;;;;;;;41.63;29.07;;;;;;;5.97;100.00;102005.91;5076986;28;20243;-63
2022/11/30 10:26:06;;;;;;;39.93;27.93;;;;;;;5.92;97.88;102008.31;5073677;28;20230;-63
2022/11/30 10:28:46;;;;;;;43.27;29.77;;;;;;;5.93;98.37;102004.00;5070230;28;20665;-63
2022/11/30 10:31:15;;;;;;;42.83;27.87;;;;;;;6.11;100.00;102007.31;5076596;28;20237;-62
2022/11/30 10:33:46;;;;;;;45.33;29.67;;;;;;;6.16;99.08;102005.75;5075869;28;20240;-62
2022/11/30 10:36:16;;;;;;;44.50;29.43;;;;;;;6.20;95.67;102015.47;5071946;28;20230;-62
2022/11/30 10:38:46;;;;;;;45.47;30.10;;;;;;;6.02;97.08;102004.34;5055750;28;20223;-62
2022/11/30 10:41:16;;;;;;;42.33;28.83;;;;;;;6.10;97.64;102005.53;5067405;28;20226;-62
2022/11/30 10:43:45;;;;;;;41.63;29.63;;;;;;;6.15;97.08;101996.16;5061319;28;20330;-63
2022/11/30 10:46:19;;;;;;;42.73;28.30;;;;;;;5.80;96.59;102002.63;5064274;28;20231;-62
2022/11/30 10:48:48;;;;;;;38.30;27.07;;;;;;;6.04;100.00;102004.41;5061235;28;20347;-61
2022/11/30 10:51:17;;;;;;;40.90;27.67;;;;;;;5.86;99.44;102008.06;5052533;28;20223;-62
2022/11/30 10:53:43;;;;;;;42.73;29.63;;;;;;;6.00;98.88;102010.31;5066252;28;20222;-62
2022/11/30 10:56:12;;;;;;;42.97;28.70;;;;;;;6.02;96.48;102012.19;5069368;28;20231;-62
2022/11/30 10:58:41;;;;;;;43.30;28.00;;;;;;;5.92;98.01;102013.53;5064086;28;20235;-63
2022/11/30 11:01:10;;;;;;;44.87;29.37;;;;;;;5.67;98.22;102009.06;5080104;28;20719;-63
2022/11/30 11:03:37;;;;;;;44.33;30.20;;;;;;;5.58;98.83;102006.09;5075304;28;20913;-62
2022/11/30 11:06:13;;;;;;;38.00;27.80;;;;;;;5.75;99.84;102002.41;5083552;28;20230;-63
2022/11/30 11:08:44;;;;;;;44.90;29.77;;;;;;;5.81;98.05;101995.69;5072144;28;20230;-63
2022/11/30 11:11:27;;;;;;;40.73;29.30;;;;;;;5.81;97.54;102009.59;5067701;27;20232;-62
2022/11/30 11:14:08;;;;;;;46.50;29.67;;;;;;;5.93;97.44;102004.00;5056045;28;20310;-62
2022/11/30 11:16:50;;;;;;;46.70;30.20;;;;;;;5.97;100.00;102012.00;5059116;28;20647;-63
2022/11/30 11:19:24;;;;;;;45.50;32.27;;;;;;;6.06;98.53;102008.84;5066159;28;20608;-62